createdAt,value
2023-06-22T00:00:08.302Z,19.35
2023-06-22T00:01:08.303Z,19.34
2023-06-22T00:02:08.290Z,19.39
2023-06-22T00:03:08.368Z,19.45
2023-06-22T00:04:08.283Z,19.39
2023-06-22T00:05:08.251Z,19.45
2023-06-22T00:06:08.245Z,19.55
2023-06-22T00:07:08.211Z,19.49
2023-06-22T00:08:08.207Z,19.41
2023-06-22T00:09:08.205Z,19.48
2023-06-22T00:10:09.180Z,19.55
2023-06-22T00:11:08.179Z,19.52
2023-06-22T00:12:08.158Z,19.57
2023-06-22T00:13:08.141Z,19.57
2023-06-22T00:14:08.130Z,19.62
2023-06-22T00:15:08.154Z,19.64
2023-06-22T00:16:08.126Z,19.60
2023-06-22T00:17:08.101Z,19.62
2023-06-22T00:18:08.132Z,19.67
2023-06-22T00:19:08.116Z,19.67
2023-06-22T00:20:08.068Z,19.59
2023-06-22T00:21:08.075Z,19.62
2023-06-22T00:22:08.035Z,19.55
2023-06-22T00:23:08.035Z,19.48
2023-06-22T00:24:08.012Z,19.47
2023-06-22T00:25:08.018Z,19.42
2023-06-22T00:26:07.988Z,19.45
2023-06-22T00:27:07.983Z,19.45
2023-06-22T00:28:08.025Z,19.35
2023-06-22T00:29:08.079Z,19.44
2023-06-22T00:30:07.956Z,19.37
2023-06-22T00:31:07.966Z,19.42
2023-06-22T00:32:07.925Z,19.30
2023-06-22T00:33:07.933Z,19.44
2023-06-22T00:34:07.905Z,19.41
2023-06-22T00:35:07.903Z,19.35
2023-06-22T00:36:07.891Z,19.34
2023-06-22T00:37:07.876Z,19.30
2023-06-22T00:38:07.875Z,19.24
2023-06-22T00:39:07.854Z,19.27
2023-06-22T00:40:07.851Z,19.24
2023-06-22T00:41:07.827Z,19.23
2023-06-22T00:42:07.817Z,19.19
2023-06-22T00:43:07.830Z,19.16
2023-06-22T00:44:07.828Z,19.19
2023-06-22T00:45:07.787Z,19.16
2023-06-22T00:46:07.762Z,19.09
2023-06-22T00:47:07.793Z,19.04
2023-06-22T00:48:07.785Z,19.12
2023-06-22T00:49:07.731Z,19.16
2023-06-22T00:50:07.726Z,19.22
2023-06-22T00:51:07.734Z,19.27
2023-06-22T00:52:07.696Z,19.22
2023-06-22T00:53:07.665Z,19.17
2023-06-22T00:54:08.721Z,19.17
2023-06-22T00:55:07.658Z,19.29
2023-06-22T00:56:07.654Z,19.12
2023-06-22T00:57:07.675Z,19.20
2023-06-22T00:58:07.637Z,19.23
2023-06-22T00:59:07.604Z,19.27
2023-06-22T01:00:07.616Z,19.26
2023-06-22T01:01:07.610Z,19.16
2023-06-22T01:02:07.629Z,18.85
2023-06-22T01:03:07.705Z,18.64
2023-06-22T01:04:07.688Z,18.64
2023-06-22T01:05:07.545Z,18.58
2023-06-22T01:06:07.544Z,18.61
2023-06-22T01:07:07.540Z,18.60
2023-06-22T01:08:07.501Z,18.55
2023-06-22T01:09:07.505Z,18.66
2023-06-22T01:10:07.490Z,18.66
2023-06-22T01:11:07.490Z,18.70
2023-06-22T01:12:07.492Z,18.76
2023-06-22T01:13:07.470Z,18.82
2023-06-22T01:14:07.451Z,18.71
2023-06-22T01:15:07.438Z,18.68
2023-06-22T01:16:07.431Z,18.74
2023-06-22T01:17:07.417Z,18.74
2023-06-22T01:18:07.426Z,18.66
2023-06-22T01:19:07.393Z,18.70
2023-06-22T01:20:07.388Z,18.68
2023-06-22T01:21:07.364Z,18.74
2023-06-22T01:22:07.351Z,18.81
2023-06-22T01:23:07.349Z,18.76
2023-06-22T01:24:07.344Z,18.85
2023-06-22T01:25:07.332Z,18.89
2023-06-22T01:26:07.298Z,18.88
2023-06-22T01:27:07.294Z,18.86
2023-06-22T01:28:07.280Z,18.73
2023-06-22T01:29:07.295Z,18.78
2023-06-22T01:30:07.253Z,18.91
2023-06-22T01:31:07.280Z,18.91
2023-06-22T01:32:09.337Z,18.79
2023-06-22T01:33:08.286Z,18.78
2023-06-22T01:34:07.280Z,18.94
2023-06-22T01:35:07.198Z,19.01
2023-06-22T01:36:07.217Z,19.07
2023-06-22T01:37:07.174Z,19.01
2023-06-22T01:38:07.171Z,19.01
2023-06-22T01:39:07.170Z,19.17
2023-06-22T01:40:07.214Z,19.04
2023-06-22T01:41:07.134Z,19.09
2023-06-22T01:42:07.127Z,19.08
2023-06-22T01:43:07.136Z,19.12
2023-06-22T01:44:07.112Z,19.15
2023-06-22T01:45:07.091Z,19.16
2023-06-22T01:46:07.078Z,19.23
2023-06-22T01:47:07.062Z,19.38
2023-06-22T01:48:07.121Z,19.30
2023-06-22T01:49:07.060Z,19.30
2023-06-22T01:50:07.042Z,19.44
2023-06-22T01:51:07.013Z,19.42
2023-06-22T01:52:07.016Z,19.52
2023-06-22T01:53:07.007Z,19.49
2023-06-22T01:54:07.018Z,19.49
2023-06-22T01:55:06.964Z,19.42
2023-06-22T01:56:06.961Z,19.24
2023-06-22T01:57:06.947Z,19.11
2023-06-22T01:58:06.959Z,18.94
2023-06-22T01:59:06.932Z,18.79
2023-06-22T02:00:06.933Z,18.78
2023-06-22T02:01:06.897Z,18.83
2023-06-22T02:02:06.965Z,18.91
2023-06-22T02:03:06.945Z,18.83
2023-06-22T02:04:07.029Z,18.83
2023-06-22T02:05:06.865Z,18.86
2023-06-22T02:06:06.856Z,18.91
2023-06-22T02:07:06.841Z,18.91
2023-06-22T02:08:06.829Z,18.89
2023-06-22T02:09:06.813Z,18.89
2023-06-22T02:10:06.805Z,18.86
2023-06-22T02:11:06.809Z,18.96
2023-06-22T02:12:06.771Z,18.96
2023-06-22T02:13:06.767Z,19.08
2023-06-22T02:14:06.764Z,18.98
2023-06-22T02:15:06.741Z,19.09
2023-06-22T02:16:06.729Z,19.00
2023-06-22T02:17:06.709Z,19.16
2023-06-22T02:18:06.760Z,19.09
2023-06-22T02:19:06.694Z,19.22
2023-06-22T02:20:06.688Z,19.12
2023-06-22T02:21:06.697Z,19.19
2023-06-22T02:22:06.662Z,19.22
2023-06-22T02:23:06.639Z,19.23
2023-06-22T02:24:06.642Z,19.29
2023-06-22T02:25:06.648Z,19.30
2023-06-22T02:26:06.619Z,19.32
2023-06-22T02:27:06.616Z,19.26
2023-06-22T02:28:06.607Z,19.37
2023-06-22T02:29:06.578Z,19.27
2023-06-22T02:30:06.589Z,19.38
2023-06-22T02:31:06.576Z,19.32
2023-06-22T02:32:06.544Z,19.38
2023-06-22T02:33:06.570Z,19.32
2023-06-22T02:34:06.538Z,19.42
2023-06-22T02:35:06.512Z,19.45
2023-06-22T02:36:06.567Z,19.41
2023-06-22T02:37:06.496Z,19.45
2023-06-22T02:38:06.472Z,19.41
2023-06-22T02:39:06.463Z,19.45
2023-06-22T02:40:06.455Z,19.49
2023-06-22T02:41:06.455Z,19.55
2023-06-22T02:42:06.438Z,19.56
2023-06-22T02:43:06.430Z,19.60
2023-06-22T02:44:06.414Z,19.67
2023-06-22T02:45:06.407Z,19.60
2023-06-22T02:46:06.406Z,19.63
2023-06-22T02:47:06.405Z,19.62
2023-06-22T02:48:06.396Z,19.64
2023-06-22T02:49:06.354Z,19.57
2023-06-22T02:50:06.345Z,19.62
2023-06-22T02:51:06.333Z,19.71
2023-06-22T02:52:06.328Z,19.67
2023-06-22T02:53:06.310Z,19.71
2023-06-22T02:54:06.383Z,19.74
2023-06-22T02:55:06.284Z,19.79
2023-06-22T02:56:06.289Z,19.79
2023-06-22T02:57:06.283Z,19.82
2023-06-22T02:58:06.258Z,19.77
2023-06-22T02:59:06.239Z,19.78
2023-06-22T03:00:06.240Z,19.81
2023-06-22T03:01:06.323Z,19.87
2023-06-22T03:02:06.194Z,19.85
2023-06-22T03:03:06.277Z,19.93
2023-06-22T03:04:06.321Z,19.97
2023-06-22T03:05:06.188Z,19.97
2023-06-22T03:06:06.175Z,19.94
2023-06-22T03:07:06.825Z,19.89
2023-06-22T03:08:06.130Z,19.94
2023-06-22T03:09:06.355Z,19.85
2023-06-22T03:10:06.112Z,19.81
2023-06-22T03:11:06.112Z,19.78
2023-06-22T03:12:06.080Z,19.64
2023-06-22T03:13:06.080Z,19.53
2023-06-22T03:14:06.062Z,19.32
2023-06-22T03:15:06.048Z,19.37
2023-06-22T03:16:06.052Z,19.22
2023-06-22T03:17:06.048Z,19.20
2023-06-22T03:18:06.088Z,19.20
2023-06-22T03:19:06.034Z,19.26
2023-06-22T03:20:05.999Z,19.19
2023-06-22T03:21:05.980Z,19.22
2023-06-22T03:22:05.979Z,19.24
2023-06-22T03:23:05.988Z,19.17
2023-06-22T03:24:05.938Z,19.24
2023-06-22T03:25:05.937Z,19.22
2023-06-22T03:26:05.930Z,19.19
2023-06-22T03:27:05.973Z,19.27
2023-06-22T03:28:05.903Z,19.24
2023-06-22T03:29:05.989Z,19.23
2023-06-22T03:30:05.881Z,19.26
2023-06-22T03:31:05.888Z,19.23
2023-06-22T03:32:05.969Z,19.29
2023-06-22T03:33:05.889Z,19.34
2023-06-22T03:34:05.861Z,19.29
2023-06-22T03:35:05.825Z,19.37
2023-06-22T03:36:05.876Z,19.26
2023-06-22T03:37:05.805Z,19.29
2023-06-22T03:38:05.828Z,19.34
2023-06-22T03:39:05.770Z,19.32
2023-06-22T03:40:05.786Z,19.29
2023-06-22T03:41:05.753Z,19.19
2023-06-22T03:42:05.760Z,19.41
2023-06-22T03:43:05.734Z,19.24
2023-06-22T03:44:05.734Z,19.29
2023-06-22T03:45:05.725Z,19.20
2023-06-22T03:46:05.769Z,19.17
2023-06-22T03:47:05.683Z,19.09
2023-06-22T03:48:05.732Z,19.09
2023-06-22T03:49:05.832Z,19.12
2023-06-22T03:50:05.725Z,19.16
2023-06-22T03:51:05.666Z,19.12
2023-06-22T03:52:05.637Z,19.12
2023-06-22T03:53:05.626Z,19.12
2023-06-22T03:54:05.655Z,19.11
2023-06-22T03:55:05.605Z,19.19
2023-06-22T03:56:05.598Z,19.17
2023-06-22T03:57:05.590Z,19.17
2023-06-22T03:58:05.573Z,19.19
2023-06-22T03:59:05.550Z,19.12
2023-06-22T04:00:05.586Z,19.15
2023-06-22T04:01:05.533Z,19.17
2023-06-22T04:02:05.507Z,19.11
2023-06-22T04:03:05.533Z,19.19
2023-06-22T04:04:05.636Z,19.19
2023-06-22T04:05:05.584Z,19.17
2023-06-22T04:06:05.495Z,19.16
2023-06-22T04:07:05.460Z,19.17
2023-06-22T04:08:05.450Z,19.17
2023-06-22T04:09:05.439Z,19.09
2023-06-22T04:10:05.406Z,19.19
2023-06-22T04:11:05.437Z,19.24
2023-06-22T04:12:05.381Z,19.22
2023-06-22T04:13:05.389Z,19.29
2023-06-22T04:14:05.377Z,19.30
2023-06-22T04:15:05.366Z,19.41
2023-06-22T04:16:05.380Z,19.45
2023-06-22T04:17:05.336Z,19.45
2023-06-22T04:18:05.361Z,19.48
2023-06-22T04:19:05.306Z,19.53
2023-06-22T04:20:05.334Z,19.60
2023-06-22T04:21:05.295Z,19.70
2023-06-22T04:22:05.276Z,19.62
2023-06-22T04:23:05.278Z,19.59
2023-06-22T04:24:05.270Z,19.60
2023-06-22T04:25:05.242Z,19.66
2023-06-22T04:26:05.239Z,19.72
2023-06-22T04:27:05.246Z,19.75
2023-06-22T04:28:05.229Z,19.64
2023-06-22T04:29:05.201Z,19.60
2023-06-22T04:30:05.186Z,19.60
2023-06-22T04:31:05.258Z,19.55
2023-06-22T04:32:05.169Z,19.55
2023-06-22T04:33:05.202Z,19.57
2023-06-22T04:34:05.149Z,19.52
2023-06-22T04:35:05.137Z,19.56
2023-06-22T04:36:05.118Z,19.62
2023-06-22T04:37:05.160Z,19.59
2023-06-22T04:38:05.090Z,19.52
2023-06-22T04:39:05.078Z,19.60
2023-06-22T04:40:05.128Z,19.52
2023-06-22T04:41:05.083Z,19.37
2023-06-22T04:42:05.072Z,19.27
2023-06-22T04:43:05.063Z,19.38
2023-06-22T04:44:05.037Z,19.34
2023-06-22T04:45:05.023Z,19.34
2023-06-22T04:46:05.076Z,19.35
2023-06-22T04:47:05.116Z,19.37
2023-06-22T04:48:05.041Z,19.29
2023-06-22T04:49:04.979Z,19.27
2023-06-22T04:50:04.961Z,19.19
2023-06-22T04:51:04.978Z,19.16
2023-06-22T04:52:04.921Z,19.17
2023-06-22T04:53:04.939Z,19.19
2023-06-22T04:54:04.919Z,19.27
2023-06-22T04:55:04.925Z,19.22
2023-06-22T04:56:04.881Z,19.23
2023-06-22T04:57:04.879Z,19.26
2023-06-22T04:58:04.896Z,19.30
2023-06-22T04:59:04.869Z,19.48
2023-06-22T05:00:04.852Z,19.55
2023-06-22T05:01:04.838Z,19.62
2023-06-22T05:02:04.847Z,19.78
2023-06-22T05:03:18.662Z,19.85
2023-06-22T05:04:07.067Z,19.89
2023-06-22T05:05:04.872Z,19.99
2023-06-22T05:06:04.797Z,20.12
2023-06-22T05:07:04.776Z,20.30
2023-06-22T05:08:04.799Z,20.30
2023-06-22T05:09:04.763Z,20.53
2023-06-22T05:10:04.741Z,20.66
2023-06-22T05:11:05.974Z,20.78
2023-06-22T05:12:07.127Z,20.82
2023-06-22T05:13:04.687Z,21.00
2023-06-22T05:14:04.694Z,20.96
2023-06-22T05:15:04.672Z,21.10
2023-06-22T05:16:04.755Z,21.26
2023-06-22T05:17:04.676Z,21.30
2023-06-22T05:18:04.722Z,21.29
2023-06-22T05:19:04.806Z,21.50
2023-06-22T05:20:04.639Z,21.56
2023-06-22T05:21:04.631Z,21.72
2023-06-22T05:22:04.613Z,21.75
2023-06-22T05:23:05.614Z,22.06
2023-06-22T05:24:04.580Z,22.06
2023-06-22T05:25:04.575Z,22.07
2023-06-22T05:26:04.585Z,22.25
2023-06-22T05:27:04.568Z,22.28
2023-06-22T05:28:04.552Z,22.43
2023-06-22T05:29:04.515Z,22.33
2023-06-22T05:30:04.513Z,22.40
2023-06-22T05:31:04.514Z,22.43
2023-06-22T05:32:04.494Z,22.51
2023-06-22T05:33:04.604Z,22.52
2023-06-22T05:34:04.507Z,22.70
2023-06-22T05:35:04.464Z,22.63
2023-06-22T05:36:04.479Z,22.76
2023-06-22T05:37:04.441Z,22.67
2023-06-22T05:38:04.415Z,22.70
2023-06-22T05:39:05.445Z,22.67
2023-06-22T05:40:04.395Z,22.67
2023-06-22T05:41:04.397Z,22.52
2023-06-22T05:42:04.376Z,22.59
2023-06-22T05:43:04.381Z,22.61
2023-06-22T05:44:04.379Z,22.51
2023-06-22T05:45:04.356Z,22.55
2023-06-22T05:46:04.329Z,22.33
2023-06-22T05:47:04.334Z,22.40
2023-06-22T05:48:04.432Z,22.36
2023-06-22T05:49:04.321Z,22.41
2023-06-22T05:50:04.323Z,22.40
2023-06-22T05:51:04.282Z,22.38
2023-06-22T05:52:04.300Z,22.31
2023-06-22T05:53:04.272Z,22.41
2023-06-22T05:54:04.244Z,22.51
2023-06-22T05:55:04.250Z,22.53
2023-06-22T05:56:05.224Z,22.47
2023-06-22T05:57:04.225Z,22.70
2023-06-22T05:58:04.230Z,22.68
2023-06-22T05:59:04.186Z,22.76
2023-06-22T06:00:04.190Z,22.91
2023-06-22T06:01:04.179Z,22.92
2023-06-22T06:02:04.192Z,22.84
2023-06-22T06:03:04.356Z,22.70
2023-06-22T06:04:04.184Z,22.55
2023-06-22T06:05:04.147Z,22.38
2023-06-22T06:06:04.123Z,22.06
2023-06-22T06:07:05.105Z,21.66
2023-06-22T06:08:04.138Z,21.47
2023-06-22T06:09:04.078Z,21.25
2023-06-22T06:10:04.073Z,21.08
2023-06-22T06:11:04.088Z,21.17
2023-06-22T06:12:04.056Z,21.07
2023-06-22T06:13:04.065Z,21.29
2023-06-22T06:14:04.024Z,21.30
2023-06-22T06:15:04.016Z,21.58
2023-06-22T06:16:04.017Z,21.58
2023-06-22T06:17:03.998Z,21.69
2023-06-22T06:18:04.033Z,21.77
2023-06-22T06:19:04.001Z,21.51
2023-06-22T06:20:03.966Z,21.53
2023-06-22T06:21:03.960Z,21.51
2023-06-22T06:22:03.942Z,21.32
2023-06-22T06:23:03.936Z,21.32
2023-06-22T06:24:03.919Z,21.28
2023-06-22T06:25:03.898Z,21.32
2023-06-22T06:26:03.909Z,21.29
2023-06-22T06:27:03.891Z,21.19
2023-06-22T06:28:03.868Z,21.10
2023-06-22T06:29:03.864Z,21.10
2023-06-22T06:30:03.900Z,21.25
2023-06-22T06:31:04.027Z,21.13
2023-06-22T06:32:04.027Z,21.03
2023-06-22T06:33:03.889Z,21.17
2023-06-22T06:34:03.853Z,21.30
2023-06-22T06:35:03.810Z,21.37
2023-06-22T06:36:03.808Z,21.45
2023-06-22T06:37:03.806Z,21.33
2023-06-22T06:38:03.852Z,21.41
2023-06-22T06:39:03.763Z,21.54
2023-06-22T06:40:03.766Z,21.51
2023-06-22T06:41:03.780Z,21.74
2023-06-22T06:42:03.747Z,21.91
2023-06-22T06:43:03.734Z,21.88
2023-06-22T06:44:03.716Z,22.10
2023-06-22T06:45:03.719Z,22.12
2023-06-22T06:46:03.798Z,22.23
2023-06-22T06:47:03.664Z,22.22
2023-06-22T06:48:03.754Z,22.22
2023-06-22T06:49:03.676Z,22.31
2023-06-22T06:50:03.662Z,22.31
2023-06-22T06:51:03.675Z,22.52
2023-06-22T06:52:03.618Z,22.41
2023-06-22T06:53:03.675Z,22.74
2023-06-22T06:54:03.711Z,22.92
2023-06-22T06:55:03.615Z,22.92
2023-06-22T06:56:03.595Z,22.83
2023-06-22T06:57:03.601Z,22.96
2023-06-22T06:58:03.705Z,23.01
2023-06-22T06:59:03.567Z,23.02
2023-06-22T07:00:03.544Z,23.17
2023-06-22T07:01:03.539Z,23.34
2023-06-22T07:02:03.563Z,23.44
2023-06-22T07:03:03.607Z,23.56
2023-06-22T07:04:03.531Z,23.70
2023-06-22T07:05:03.490Z,23.89
2023-06-22T07:06:03.492Z,23.70
2023-06-22T07:07:03.482Z,23.40
2023-06-22T07:08:03.458Z,23.37
2023-06-22T07:09:03.432Z,23.55
2023-06-22T07:10:05.525Z,23.55
2023-06-22T07:11:03.447Z,23.74
2023-06-22T07:12:03.558Z,23.49
2023-06-22T07:13:03.413Z,23.47
2023-06-22T07:14:03.397Z,23.34
2023-06-22T07:15:03.401Z,23.44
2023-06-22T07:16:03.365Z,23.48
2023-06-22T07:17:03.393Z,23.39
2023-06-22T07:18:03.393Z,23.16
2023-06-22T07:19:03.345Z,23.14
2023-06-22T07:20:03.355Z,23.37
2023-06-22T07:21:03.301Z,23.45
2023-06-22T07:22:03.333Z,23.44
2023-06-22T07:23:03.314Z,23.47
2023-06-22T07:24:03.317Z,23.52
2023-06-22T07:25:03.272Z,23.77
2023-06-22T07:26:03.310Z,23.74
2023-06-22T07:27:03.345Z,23.82
2023-06-22T07:28:03.409Z,23.66
2023-06-22T07:29:03.257Z,23.81
2023-06-22T07:30:03.215Z,23.88
2023-06-22T07:31:03.323Z,23.95
2023-06-22T07:32:03.211Z,23.84
2023-06-22T07:33:03.257Z,23.77
2023-06-22T07:34:03.219Z,23.74
2023-06-22T07:35:03.169Z,23.89
2023-06-22T07:36:03.153Z,23.92
2023-06-22T07:37:03.177Z,24.01
2023-06-22T07:38:06.056Z,24.07
2023-06-22T07:39:04.133Z,24.00
2023-06-22T07:40:03.142Z,23.99
2023-06-22T07:41:03.122Z,23.99
2023-06-22T07:42:03.110Z,23.92
2023-06-22T07:43:03.230Z,24.03
2023-06-22T07:44:03.095Z,24.24
2023-06-22T07:45:03.057Z,24.22
2023-06-22T07:46:04.045Z,24.31
2023-06-22T07:47:03.042Z,24.47
2023-06-22T07:48:03.133Z,24.48
2023-06-22T07:49:03.043Z,24.53
2023-06-22T07:50:03.028Z,24.68
2023-06-22T07:51:03.018Z,24.85
2023-06-22T07:52:04.477Z,24.96
2023-06-22T07:53:02.987Z,24.99
2023-06-22T07:54:02.955Z,24.66
2023-06-22T07:55:02.986Z,24.66
2023-06-22T07:56:02.983Z,24.74
2023-06-22T07:57:02.934Z,24.79
2023-06-22T07:58:02.973Z,24.86
2023-06-22T07:59:02.911Z,24.97
2023-06-22T08:00:02.896Z,24.96
2023-06-22T08:01:02.887Z,25.09
2023-06-22T08:02:02.963Z,25.11
2023-06-22T08:03:02.937Z,25.16
2023-06-22T08:04:02.932Z,24.88
2023-06-22T08:05:10.936Z,25.00
2023-06-22T08:06:04.835Z,25.18
2023-06-22T08:07:02.836Z,25.12
2023-06-22T08:08:02.861Z,25.37
2023-06-22T08:09:02.819Z,25.66
2023-06-22T08:10:02.806Z,25.73
2023-06-22T08:11:02.784Z,25.89
2023-06-22T08:12:02.777Z,25.88
2023-06-22T08:13:02.763Z,26.13
2023-06-22T08:14:02.888Z,26.22
2023-06-22T08:15:02.768Z,26.48
2023-06-22T08:16:02.716Z,26.30
2023-06-22T08:17:02.723Z,25.92
2023-06-22T08:18:02.739Z,26.06
2023-06-22T08:19:02.710Z,26.26
2023-06-22T08:20:02.705Z,26.48
2023-06-22T08:21:16.157Z,26.76
2023-06-22T08:22:02.682Z,26.71
2023-06-22T08:23:02.679Z,26.48
2023-06-22T08:24:02.658Z,26.60
2023-06-22T08:25:02.630Z,26.81
2023-06-22T08:26:02.605Z,27.10
2023-06-22T08:27:02.610Z,27.30
2023-06-22T08:28:03.608Z,27.58
2023-06-22T08:29:02.584Z,27.60
2023-06-22T08:30:02.584Z,27.58
2023-06-22T08:31:02.558Z,27.85
2023-06-22T08:32:02.629Z,28.04
2023-06-22T08:33:02.613Z,27.91
2023-06-22T08:34:02.542Z,27.48
2023-06-22T08:35:02.530Z,27.47
2023-06-22T08:36:02.545Z,27.76
2023-06-22T08:37:02.504Z,27.85
2023-06-22T08:38:02.490Z,27.76
2023-06-22T08:39:02.650Z,27.76
2023-06-22T08:40:02.553Z,27.93
2023-06-22T08:41:02.465Z,27.83
2023-06-22T08:42:02.438Z,27.85
2023-06-22T08:43:02.457Z,27.60
2023-06-22T08:44:02.432Z,27.28
2023-06-22T08:45:02.395Z,27.40
2023-06-22T08:46:02.432Z,27.30
2023-06-22T08:47:02.395Z,27.30
2023-06-22T08:48:02.446Z,27.18
2023-06-22T08:49:02.389Z,27.08
2023-06-22T08:50:03.358Z,26.71
2023-06-22T08:51:02.357Z,26.78
2023-06-22T08:52:02.357Z,27.13
2023-06-22T08:53:02.345Z,27.15
2023-06-22T08:54:02.328Z,27.16
2023-06-22T08:55:02.327Z,27.34
2023-06-22T08:56:02.292Z,27.48
2023-06-22T08:57:02.301Z,27.30
2023-06-22T08:58:02.301Z,27.16
2023-06-22T08:59:02.275Z,27.20
2023-06-22T09:00:02.255Z,27.44
2023-06-22T09:01:02.257Z,27.61
2023-06-22T09:02:02.283Z,27.79
2023-06-22T09:03:02.488Z,27.95
2023-06-22T09:04:02.280Z,28.09
2023-06-22T09:05:02.410Z,27.98
2023-06-22T09:06:02.239Z,27.94
2023-06-22T09:07:02.196Z,27.88
2023-06-22T09:08:02.177Z,27.86
2023-06-22T09:09:02.183Z,27.79
2023-06-22T09:10:04.203Z,27.78
2023-06-22T09:11:03.137Z,27.40
2023-06-22T09:12:02.139Z,27.23
2023-06-22T09:13:02.146Z,27.43
2023-06-22T09:14:02.150Z,27.10
2023-06-22T09:15:02.108Z,27.08
2023-06-22T09:16:02.090Z,26.93
2023-06-22T09:17:02.072Z,27.05
2023-06-22T09:18:02.096Z,27.22
2023-06-22T09:19:02.070Z,27.52
2023-06-22T09:20:02.053Z,27.44
2023-06-22T09:21:02.037Z,27.55
2023-06-22T09:22:02.048Z,27.68
2023-06-22T09:23:02.011Z,27.67
2023-06-22T09:24:02.005Z,28.04
2023-06-22T09:25:02.013Z,28.10
2023-06-22T09:26:01.997Z,28.34
2023-06-22T09:27:01.990Z,28.45
2023-06-22T09:28:01.978Z,28.65
2023-06-22T09:29:01.968Z,28.49
2023-06-22T09:30:01.940Z,28.30
2023-06-22T09:31:01.992Z,27.90
2023-06-22T09:32:02.175Z,27.61
2023-06-22T09:33:01.961Z,27.58
2023-06-22T09:34:01.901Z,27.86
2023-06-22T09:35:01.910Z,27.71
2023-06-22T09:36:01.889Z,27.63
2023-06-22T09:37:01.959Z,27.47
2023-06-22T09:38:01.901Z,27.61
2023-06-22T09:39:01.858Z,27.73
2023-06-22T09:40:01.860Z,28.03
2023-06-22T09:41:01.819Z,28.08
2023-06-22T09:42:01.835Z,28.28
2023-06-22T09:43:01.800Z,28.03
2023-06-22T09:44:01.786Z,28.09
2023-06-22T09:45:01.802Z,27.82
2023-06-22T09:46:01.772Z,27.64
2023-06-22T09:47:02.779Z,27.68
2023-06-22T09:48:01.800Z,28.01
2023-06-22T09:49:01.746Z,28.23
2023-06-22T09:50:01.808Z,28.33
2023-06-22T09:51:01.724Z,28.12
2023-06-22T09:52:01.714Z,28.15
2023-06-22T09:53:01.692Z,28.20
2023-06-22T09:54:01.691Z,28.45
2023-06-22T09:55:01.703Z,28.78
2023-06-22T09:56:01.652Z,28.89
2023-06-22T09:57:01.665Z,29.32
2023-06-22T09:58:01.655Z,29.15
2023-06-22T09:59:13.982Z,29.06
2023-06-22T10:00:03.621Z,29.05
2023-06-22T10:01:01.649Z,29.10
2023-06-22T10:02:01.692Z,28.97
2023-06-22T10:03:02.051Z,29.13
2023-06-22T10:04:01.931Z,29.46
2023-06-22T10:05:01.989Z,29.67
2023-06-22T10:06:01.663Z,29.76
2023-06-22T10:07:01.570Z,29.79
2023-06-22T10:08:01.553Z,30.16
2023-06-22T10:09:01.547Z,30.38
2023-06-22T10:10:01.520Z,30.35
2023-06-22T10:11:01.524Z,30.74
2023-06-22T10:12:01.512Z,30.91
2023-06-22T10:13:01.490Z,31.04
2023-06-22T10:14:01.504Z,31.17
2023-06-22T10:15:01.479Z,31.41
2023-06-22T10:16:01.462Z,31.11
2023-06-22T10:17:01.479Z,31.30
2023-06-22T10:18:01.507Z,31.55
2023-06-22T10:19:01.440Z,31.62
2023-06-22T10:20:01.426Z,31.42
2023-06-22T10:21:01.409Z,31.04
2023-06-22T10:22:01.408Z,30.98
2023-06-22T10:23:01.404Z,31.11
2023-06-22T10:24:01.377Z,31.04
2023-06-22T10:25:01.362Z,30.76
2023-06-22T10:26:01.384Z,31.04
2023-06-22T10:27:01.365Z,31.42
2023-06-22T10:28:01.350Z,31.78
2023-06-22T10:29:16.019Z,31.85
2023-06-22T10:30:03.338Z,31.98
2023-06-22T10:31:01.394Z,32.09
2023-06-22T10:32:01.334Z,32.12
2023-06-22T10:33:01.360Z,32.26
2023-06-22T10:34:01.292Z,32.31
2023-06-22T10:35:01.287Z,32.29
2023-06-22T10:36:01.276Z,32.61
2023-06-22T10:37:01.295Z,32.41
2023-06-22T10:38:01.255Z,32.30
2023-06-22T10:39:01.230Z,31.92
2023-06-22T10:40:01.236Z,32.20
2023-06-22T10:41:01.213Z,32.23
2023-06-22T10:42:01.222Z,31.57
2023-06-22T10:43:01.246Z,31.62
2023-06-22T10:44:01.204Z,31.59
2023-06-22T10:45:01.186Z,31.30
2023-06-22T10:46:01.168Z,31.04
2023-06-22T10:47:01.175Z,31.15
2023-06-22T10:48:01.235Z,30.98
2023-06-22T10:49:01.140Z,30.99
2023-06-22T10:50:01.140Z,30.96
2023-06-22T10:51:01.144Z,30.98
2023-06-22T10:52:01.117Z,31.23
2023-06-22T10:53:01.119Z,31.11
2023-06-22T10:54:01.175Z,30.99
2023-06-22T10:55:01.079Z,30.91
2023-06-22T10:56:01.357Z,30.73
2023-06-22T10:57:01.063Z,31.04
2023-06-22T10:58:01.062Z,31.08
2023-06-22T10:59:01.039Z,31.11
2023-06-22T11:00:01.079Z,31.10
2023-06-22T11:01:01.102Z,31.36
2023-06-22T11:02:01.054Z,31.67
2023-06-22T11:03:01.133Z,32.07
2023-06-22T11:04:01.170Z,32.24
2023-06-22T11:05:00.971Z,32.72
2023-06-22T11:06:00.986Z,33.26
2023-06-22T11:07:00.969Z,33.85
2023-06-22T11:08:00.967Z,34.14
2023-06-22T11:09:05.373Z,34.60
2023-06-22T11:10:02.944Z,34.44
2023-06-22T11:11:00.923Z,34.88
2023-06-22T11:12:00.988Z,35.07
2023-06-22T11:13:00.948Z,35.39
2023-06-22T11:14:00.908Z,35.50
2023-06-22T11:15:00.908Z,34.91
2023-06-22T11:16:00.882Z,35.16
2023-06-22T11:17:00.869Z,35.59
2023-06-22T11:18:00.936Z,35.79
2023-06-22T11:19:00.851Z,35.71
2023-06-22T11:20:00.853Z,35.49
2023-06-22T11:21:00.833Z,35.59
2023-06-22T11:22:00.823Z,36.08
2023-06-22T11:23:00.813Z,36.57
2023-06-22T11:24:00.815Z,36.75
2023-06-22T11:25:00.804Z,36.65
2023-06-22T11:26:00.776Z,36.41
2023-06-22T11:27:00.779Z,36.59
2023-06-22T11:28:00.763Z,36.91
2023-06-22T11:29:00.770Z,37.01
2023-06-22T11:30:00.773Z,37.54
2023-06-22T11:31:04.941Z,37.91
2023-06-22T11:32:01.809Z,38.13
2023-06-22T11:33:00.902Z,38.17
2023-06-22T11:34:00.703Z,37.82
2023-06-22T11:35:00.698Z,37.50
2023-06-22T11:36:00.687Z,37.53
2023-06-22T11:37:00.690Z,37.53
2023-06-22T11:38:00.664Z,37.73
2023-06-22T11:39:00.665Z,37.98
2023-06-22T11:40:07.265Z,38.27
2023-06-22T11:41:02.623Z,38.34
2023-06-22T11:42:00.649Z,38.38
2023-06-22T11:43:00.622Z,38.27
2023-06-22T11:44:00.603Z,38.28
2023-06-22T11:45:00.610Z,38.16
2023-06-22T11:46:00.591Z,38.05
2023-06-22T11:47:00.630Z,37.98
2023-06-22T11:48:00.617Z,37.86
2023-06-22T11:49:00.576Z,37.79
2023-06-22T11:50:00.550Z,37.91
2023-06-22T11:51:00.532Z,37.94
2023-06-22T11:52:00.558Z,37.90
2023-06-22T11:53:00.529Z,38.07
2023-06-22T11:54:00.520Z,38.28
2023-06-22T11:55:00.523Z,38.47
2023-06-22T11:56:00.493Z,38.54
2023-06-22T11:57:00.519Z,39.01
2023-06-22T11:58:00.491Z,39.14
2023-06-22T11:59:00.468Z,38.60
2023-06-22T12:00:00.471Z,38.01
2023-06-22T12:01:00.459Z,37.76
2023-06-22T12:02:00.457Z,37.86
2023-06-22T12:03:01.287Z,38.13
2023-06-22T12:04:01.436Z,38.38
2023-06-22T12:05:00.403Z,38.69
2023-06-22T12:06:00.459Z,38.66
2023-06-22T12:07:00.411Z,38.75
2023-06-22T12:08:00.389Z,38.32
2023-06-22T12:09:00.358Z,38.17
2023-06-22T12:10:00.382Z,38.02
2023-06-22T12:11:00.364Z,37.79
2023-06-22T12:12:00.333Z,36.67
2023-06-22T12:13:00.351Z,36.11
2023-06-22T12:14:00.316Z,36.03
2023-06-22T12:15:00.312Z,36.33
2023-06-22T12:16:00.328Z,36.55
2023-06-22T12:17:00.311Z,36.03
2023-06-22T12:18:00.324Z,35.94
2023-06-22T12:19:00.273Z,36.18
2023-06-22T12:20:00.295Z,36.36
2023-06-22T12:21:00.272Z,36.62
2023-06-22T12:22:00.259Z,36.44
2023-06-22T12:23:00.229Z,36.76
2023-06-22T12:24:00.225Z,37.25
2023-06-22T12:25:00.223Z,36.94
2023-06-22T12:26:00.222Z,37.48
2023-06-22T12:27:00.192Z,38.14
2023-06-22T12:28:00.204Z,38.60
2023-06-22T12:29:00.176Z,38.69
2023-06-22T12:30:01.177Z,38.41
2023-06-22T12:31:00.184Z,38.22
2023-06-22T12:32:00.159Z,38.19
2023-06-22T12:33:00.238Z,38.31
2023-06-22T12:34:00.137Z,38.32
2023-06-22T12:35:00.122Z,38.42
2023-06-22T12:36:00.118Z,38.90
2023-06-22T12:37:00.151Z,39.32
2023-06-22T12:38:00.113Z,39.67
2023-06-22T12:39:00.069Z,39.33
2023-06-22T12:40:00.060Z,38.81
2023-06-22T12:41:00.116Z,38.12
2023-06-22T12:42:00.079Z,37.48
2023-06-22T12:43:00.068Z,37.36
2023-06-22T12:44:00.102Z,36.45
2023-06-22T12:45:00.039Z,36.78
2023-06-22T12:46:00.005Z,37.04
2023-06-22T12:47:00.008Z,36.84
2023-06-22T12:48:00.066Z,36.73
2023-06-22T12:48:59.981Z,36.87
2023-06-22T12:50:00.038Z,37.01
2023-06-22T12:51:00.000Z,36.99
2023-06-22T12:51:59.986Z,37.21